Home > Products > Valid Products > MTR

000
SAUS45 KRIW 290657
MTRP60
METAR KP60 290656Z AUTO 00000KT M04/M10 A3031 RMK AO1 SLP250
T10391100 401061044





000
SAUS45 KRIW 290558
MTRP60
METAR KP60 290556Z AUTO 27003KT M03/M11 A3031 RMK AO1 SLP246
T10331106 10067 21039 51028





000
SAUS45 KRIW 290558
MTRP60
METAR KP60 290556Z AUTO 27003KT M03/M11 A3031 RMK AO1 SLP246
T10331106 10067 21039 51028





000
SAUS45 KRIW 290457
MTRP60
METAR KP60 290456Z AUTO 00000KT M01/M12 A3027 RMK AO1 SLP226
T10111117





000
SAUS45 KRIW 290457
MTRP60
METAR KP60 290456Z AUTO 00000KT M01/M12 A3027 RMK AO1 SLP226
T10111117





000
SAUS45 KRIW 290357
MTRP60
METAR KP60 290356Z AUTO 00000KT M01/M12 A3027 RMK AO1 SLP234
T10061117





000
SAUS45 KRIW 290258
MTRP60
METAR KP60 290256Z AUTO 29005KT 01/M11 A3021 RMK AO1 SLP226
T00111111 51036





000
SAUS45 KRIW 290158
MTRP60
METAR KP60 290156Z AUTO 33009G18KT 02/M13 A3019 RMK AO1 SLP227
T00221128





000
SAUS45 KRIW 290057
MTRP60
METAR KP60 290056Z AUTO 30014G21KT 270V340 04/M11 A3013 RMK AO1
SLP200 T00441106





000
SAUS45 KRIW 290057
MTRP60
METAR KP60 290056Z AUTO 30014G21KT 270V340 04/M11 A3013 RMK AO1
SLP200 T00441106





000
SAUS45 KRIW 282357
MTRP60
METAR KP60 282356Z AUTO 28014G26KT 07/M12 A3007 RMK AO1 PK WND
32032/2313 SLP174 60001 T00671117 10094 20061 53016





000
SAUS45 KRIW 282357
MTRP60
METAR KP60 282356Z AUTO 28014G26KT 07/M12 A3007 RMK AO1 PK WND
32032/2313 SLP174 60001 T00671117 10094 20061 53016





000
SAUS45 KRIW 282257
MTRP60
METAR KP60 282256Z AUTO 28010G21KT 240V350 08/M10 A3003 RMK AO1 PK
WND 28029/2245 SLP152 P0001 T00831100





000
SAUS45 KRIW 282257
MTRP60
METAR KP60 282256Z AUTO 28010G21KT 240V350 08/M10 A3003 RMK AO1 PK
WND 28029/2245 SLP152 P0001 T00831100





000
SAUS45 KRIW 282157
MTRP60
METAR KP60 282156Z AUTO 27011G19KT 230V300 06/M04 A3003 RMK AO1
SLP156 T00611039





000
SAUS45 KRIW 282157
MTRP60
METAR KP60 282156Z AUTO 27011G19KT 230V300 06/M04 A3003 RMK AO1
SLP156 T00611039





000
SAUS45 KRIW 282057
MTRP60
METAR KP60 282056Z AUTO 25007G24KT 190V310 08/M03 A3001 RMK AO1 PK
WND 28033/2001 PRESFR SLP146 T00781028 58006





000
SAUS45 KRIW 281957
MTRP60
METAR KP60 281956Z AUTO 26009G27KT 210V290 07/M04 A3005 RMK AO1 PK
WND 22029/1909 SLP160 T00721044





000
SAUS45 KRIW 281957
MTRP60
METAR KP60 281956Z AUTO 26009G27KT 210V290 07/M04 A3005 RMK AO1 PK
WND 22029/1909 SLP160 T00721044





000
SAUS45 KRIW 281857
MTRP60
METAR KP60 281856Z AUTO 24008G27KT 080V300 09/M04 A3005 RMK AO1 PK
WND 28032/1811 SLP151 T00941039





000
SAUS45 KRIW 281857
MTRP60
METAR KP60 281856Z AUTO 24008G27KT 080V300 09/M04 A3005 RMK AO1 PK
WND 28032/1811 SLP151 T00941039





000
SAUS45 KRIW 281757
MTRP60
METAR KP60 281756Z AUTO 28014G30KT 240V310 09/M03 A3004 RMK AO1 PK
WND 24030/1753 SLP143 T00941033 10106 21044 56018





000
SAUS45 KRIW 281757
MTRP60
METAR KP60 281756Z AUTO 28014G30KT 240V310 09/M03 A3004 RMK AO1 PK
WND 24030/1753 SLP143 T00941033 10106 21044 56018





000
SAUS45 KRIW 281657
MTRP60
METAR KP60 281656Z AUTO 24007G17KT 200V300 10/M04 A3004 RMK AO1
SLP141 T01001039





000
SAUS45 KRIW 281657
MTRP60
METAR KP60 281656Z AUTO 24007G17KT 200V300 10/M04 A3004 RMK AO1
SLP141 T01001039





000
SAUS45 KRIW 281557
MTRP60
METAR KP60 281556Z AUTO VRB03KT 06/M02 A3006 RMK AO1 SLP158
T00561022





000
SAUS45 KRIW 281457
MTRP60
METAR KP60 281456Z AUTO 00000KT 00/M02 A3010 RMK AO1 SLP188
T00001017 58011





000
SAUS45 KRIW 281457
MTRP60
METAR KP60 281456Z AUTO 00000KT 00/M02 A3010 RMK AO1 SLP188
T00001017 58011





000
SAUS45 KRIW 281357
MTRP60
METAR KP60 281356Z AUTO 00000KT M04/M06 A3012 RMK AO1 SLP190
T10391056





000
SAUS45 KRIW 281257
MTRP60
METAR KP60 281256Z AUTO 00000KT M04/M06 A3014 RMK AO1 SLP186
T10441061





000
SAUS45 KRIW 281257
MTRP60
METAR KP60 281256Z AUTO 00000KT M04/M06 A3014 RMK AO1 SLP186
T10441061





000
SAUS45 KRIW 281157
MTRP60
METAR KP60 281156Z AUTO 00000KT M04/M06 A3014 RMK AO1 SLP186
T10441056 11022 21044 58016





000
SAUS45 KRIW 281157
MTRP60
METAR KP60 281156Z AUTO 00000KT M04/M06 A3014 RMK AO1 SLP186
T10441056 11022 21044 58016





000
SAUS45 KRIW 281057
MTRP60
METAR KP60 281056Z AUTO 00000KT M04/M05 A3017 RMK AO1 SLP191
T10391050





000
SAUS45 KRIW 281057
MTRP60
METAR KP60 281056Z AUTO 00000KT M04/M05 A3017 RMK AO1 SLP191
T10391050





000
SAUS45 KRIW 280957
MTRP60
METAR KP60 280956Z AUTO 30003KT M03/M05 A3018 RMK AO1 SLP192
T10331050





000
SAUS45 KRIW 280857
MTRP60
METAR KP60 280856Z AUTO 00000KT M03/M04 A3020 RMK AO1 SLP200
T10331044 56010





000
SAUS45 KRIW 280757
MTRP60
METAR KP60 280756Z AUTO 30004KT M03/M04 A3021 RMK AO1 SLP207
T10281044





000
SAUS45 KRIW 280757
MTRP60
METAR KP60 280756Z AUTO 30004KT M03/M04 A3021 RMK AO1 SLP207
T10281044





000
SAUS45 KRIW 280657
MTRP60
METAR KP60 280656Z AUTO 00000KT M03/M04 A3022 RMK AO1 SLP210
T10281044 401221067





000
SAUS45 KRIW 280557
MTRP60
METAR KP60 280556Z AUTO 00000KT M02/M04 A3024 RMK AO1 SLP230
T10221039 10111 21028 58005





000
SAUS45 KRIW 280557
MTRP60
METAR KP60 280556Z AUTO 00000KT M02/M04 A3024 RMK AO1 SLP230
T10221039 10111 21028 58005





000
SAUS45 KRIW 280457
MTRP60
METAR KP60 280456Z AUTO 00000KT M02/M04 A3025 RMK AO1 SLP238
T10171039





000
SAUS45 KRIW 280457
MTRP60
METAR KP60 280456Z AUTO 00000KT M02/M04 A3025 RMK AO1 SLP238
T10171039





000
SAUS45 KRIW 280357
MTRP60
METAR KP60 280356Z AUTO 00000KT M01/M03 A3025 RMK AO1 SLP246
T10061033





000
SAUS45 KRIW 280257
MTRP60
METAR KP60 280256Z AUTO 31003KT 01/M03 A3026 RMK AO1 SLP248
T00061028 53002





000
SAUS45 KRIW 280158
MTRP60
METAR KP60 280156Z AUTO 29004KT 06/M03 A3025 RMK AO1 SLP240
T00561033





000
SAUS45 KRIW 280158
MTRP60
METAR KP60 280156Z AUTO 29004KT 06/M03 A3025 RMK AO1 SLP240
T00561033





000
SAUS45 KRIW 280057
MTRP60
METAR KP60 280056Z AUTO 27004KT 10/M04 A3024 RMK AO1 SLP228
T01001039





000
SAUS45 KRIW 272357
MTRP60
METAR KP60 272356Z AUTO 27007KT 11/M04 A3025 RMK AO1 SLP227
T01111039 10122 20050 56008





000
SAUS45 KRIW 272357
MTRP60
METAR KP60 272356Z AUTO 27007KT 11/M04 A3025 RMK AO1 SLP227
T01111039 10122 20050 56008





000
SAUS45 KRIW 272257
MTRP60
METAR KP60 272256Z AUTO 27011G16KT 12/M04 A3026 RMK AO1 SLP227
T01171039





000
SAUS45 KRIW 272257
MTRP60
METAR KP60 272256Z AUTO 27011G16KT 12/M04 A3026 RMK AO1 SLP227
T01171039





000
SAUS45 KRIW 272157
MTRP60
METAR KP60 272156Z AUTO VRB06G17KT 12/M03 A3027 RMK AO1 SLP226
T01171033





000
SAUS45 KRIW 272057
MTRP60
METAR KP60 272056Z AUTO VRB05KT 12/M03 A3028 RMK AO1 SLP231
T01171028 56017





000
SAUS45 KRIW 271957
MTRP60
METAR KP60 271956Z AUTO 21007KT 10/M02 A3030 RMK AO1 SLP242
T01001017





000
SAUS45 KRIW 271857
MTRP60
METAR KP60 271856Z AUTO VRB05KT 11/M02 A3032 RMK AO1 SLP242
T01061022





000
SAUS45 KRIW 271857
MTRP60
METAR KP60 271856Z AUTO VRB05KT 11/M02 A3032 RMK AO1 SLP242
T01061022





000
SAUS45 KRIW 271757
MTRP60
METAR KP60 271756Z AUTO 11005KT 05/M01 A3034 RMK AO1 SLP267
T00501011 10056 21067 58007





000
SAUS45 KRIW 271757
MTRP60
METAR KP60 271756Z AUTO 11005KT 05/M01 A3034 RMK AO1 SLP267
T00501011 10056 21067 58007





000
SAUS45 KRIW 271657
MTRP60
METAR KP60 271656Z AUTO VRB05KT 03/M01 A3036 RMK AO1 SLP277
T00331011





000
SAUS45 KRIW 271657
MTRP60
METAR KP60 271656Z AUTO VRB05KT 03/M01 A3036 RMK AO1 SLP277
T00331011





000
SAUS45 KRIW 271557
MTRP60
METAR KP60 271556Z AUTO 12005KT 01/M02 A3036 RMK AO1 SLP284
T00061022





000
SAUS45 KRIW 271458
MTRP60
METAR KP60 271456Z AUTO 00000KT M01/M02 A3037 RMK AO1 SLP287
T10111022 53000





000
SAUS45 KRIW 271357
MTRP60
METAR KP60 271356Z AUTO 00000KT M05/M07 A3037 RMK AO1 SLP294
T10501067





000
SAUS45 KRIW 271357
MTRP60
METAR KP60 271356Z AUTO 00000KT M05/M07 A3037 RMK AO1 SLP294
T10501067





000
SAUS45 KRIW 271257
MTRP60
METAR KP60 271256Z AUTO 00000KT M06/M07 A3036 RMK AO1 SLP293
T10611072





000
SAUS45 KRIW 271257
MTRP60
METAR KP60 271256Z AUTO 00000KT M06/M07 A3036 RMK AO1 SLP293
T10611072





000
SAUS45 KRIW 271157
MTRP60
METAR KP60 271156Z AUTO 00000KT M06/M07 A3037 RMK AO1 SLP291
T10561072 11017 21056 55001





000
SAUS45 KRIW 271157
MTRP60
METAR KP60 271156Z AUTO 00000KT M06/M07 A3037 RMK AO1 SLP291
T10561072 11017 21056 55001





000
SAUS45 KRIW 271057
MTRP60
METAR KP60 271056Z AUTO 00000KT M05/M06 A3037 RMK AO1 SLP286
T10501061





000
SAUS45 KRIW 271057
MTRP60
METAR KP60 271056Z AUTO 00000KT M05/M06 A3037 RMK AO1 SLP286
T10501061





000
SAUS45 KRIW 270957
MTRP60
METAR KP60 270956Z AUTO 00000KT M04/M06 A3036 RMK AO1 SLP286
T10441056





000
SAUS45 KRIW 270857
MTRP60
METAR KP60 270856Z AUTO 00000KT M04/M06 A3037 RMK AO1 SLP285
T10391056 55005





000
SAUS45 KRIW 270857
MTRP60
METAR KP60 270856Z AUTO 00000KT M04/M06 A3037 RMK AO1 SLP285
T10391056 55005





000
SAUS45 KRIW 270757
MTRP60
METAR KP60 270756Z AUTO 00000KT M03/M04 A3036 RMK AO1 SLP281
T10331044





000
SAUS45 KRIW 270757
MTRP60
METAR KP60 270756Z AUTO 00000KT M03/M04 A3036 RMK AO1 SLP281
T10331044





000
SAUS45 KRIW 270657
MTRP60
METAR KP60 270656Z AUTO 00000KT M02/M04 A3038 RMK AO1 SLP287
T10221039 400501061





000
SAUS45 KRIW 270657
MTRP60
METAR KP60 270656Z AUTO 00000KT M02/M04 A3038 RMK AO1 SLP287
T10221039 400501061





000
SAUS45 KRIW 270557
MTRP60
METAR KP60 270556Z AUTO 00000KT M02/M03 A3039 RMK AO1 SLP291
T10171028 10044 21017 50002





000
SAUS45 KRIW 270557
MTRP60
METAR KP60 270556Z AUTO 00000KT M02/M03 A3039 RMK AO1 SLP291
T10171028 10044 21017 50002





000
SAUS45 KRIW 270457
MTRP60
METAR KP60 270456Z AUTO 00000KT M02/M03 A3039 RMK AO1 SLP299
T10171028





000
SAUS45 KRIW 270457
MTRP60
METAR KP60 270456Z AUTO 00000KT M02/M03 A3039 RMK AO1 SLP299
T10171028





000
SAUS45 KRIW 270357
MTRP60
METAR KP60 270356Z AUTO 00000KT M01/M02 A3039 RMK AO1 SLP301
T10061022





000
SAUS45 KRIW 270257
MTRP60
METAR KP60 270256Z AUTO 00000KT 01/M01 A3038 RMK AO1 SLP295
T00111011 51005





000
SAUS45 KRIW 270257
MTRP60
METAR KP60 270256Z AUTO 00000KT 01/M01 A3038 RMK AO1 SLP295
T00111011 51005





000
SAUS45 KRIW 270157
MTRP60
METAR KP60 270156Z AUTO 00000KT 03/M01 A3038 RMK AO1 SLP293
T00281011





000
SAUS45 KRIW 270057
MTRP60
METAR KP60 270056Z AUTO 28004KT 04/M02 A3037 RMK AO1 SLP287
T00391017





000
SAUS45 KRIW 270057
MTRP60
METAR KP60 270056Z AUTO 28004KT 04/M02 A3037 RMK AO1 SLP287
T00391017





000
SAUS45 KRIW 262357
MTRP60
METAR KP60 262356Z AUTO VRB03KT 04/M02 A3036 RMK AO1 SLP284
T00441017 10050 20022 53002





000
SAUS45 KRIW 262357
MTRP60
METAR KP60 262356Z AUTO VRB03KT 04/M02 A3036 RMK AO1 SLP284
T00441017 10050 20022 53002





000
SAUS45 KRIW 262257
MTRP60
METAR KP60 262256Z AUTO 28007KT 05/M02 A3035 RMK AO1 SLP281
T00501022





000
SAUS45 KRIW 262257
MTRP60
METAR KP60 262256Z AUTO 28007KT 05/M02 A3035 RMK AO1 SLP281
T00501022





000
SAUS45 KRIW 262157
MTRP60
METAR KP60 262156Z AUTO 30006KT 04/M02 A3035 RMK AO1 SLP281
T00441022





000
SAUS45 KRIW 262057
MTRP60
METAR KP60 262056Z AUTO 30007KT 04/M02 A3035 RMK AO1 SLP278
T00441022 56004





000
SAUS45 KRIW 262057
MTRP60
METAR KP60 262056Z AUTO 30007KT 04/M02 A3035 RMK AO1 SLP278
T00441022 56004





000
SAUS45 KRIW 261957
MTRP60
METAR KP60 261956Z AUTO 27008KT 04/M02 A3036 RMK AO1 SLP286
T00441022





000
SAUS45 KRIW 261857
MTRP60
METAR KP60 261856Z AUTO 28007KT 03/M03 A3036 RMK AO1 SLP292
T00331028





000
SAUS45 KRIW 261857
MTRP60
METAR KP60 261856Z AUTO 28007KT 03/M03 A3036 RMK AO1 SLP292
T00331028





000
SAUS45 KRIW 261757
MTRP60
METAR KP60 261756Z AUTO VRB05KT 02/M03 A3037 RMK AO1 SLP297
T00221033 10028 21050 50001





000
SAUS45 KRIW 261757
MTRP60
METAR KP60 261756Z AUTO VRB05KT 02/M03 A3037 RMK AO1 SLP297
T00221033 10028 21050 50001





000
SAUS45 KRIW 261657
MTRP60
METAR KP60 261656Z AUTO 00000KT 01/M03 A3037 RMK AO1 SLP305
T00061033





000
SAUS45 KRIW 261657
MTRP60
METAR KP60 261656Z AUTO 00000KT 01/M03 A3037 RMK AO1 SLP305
T00061033





000
SAUS45 KRIW 261557
MTRP60
METAR KP60 261556Z AUTO 09003KT M02/M03 A3037 RMK AO1 SLP308
T10171033





000
SAUS45 KRIW 261457
MTRP60
METAR KP60 261456Z AUTO 10003KT M03/M04 A3036 RMK AO1 SLP303
T10281044 51002





000
SAUS45 KRIW 261357
MTRP60
METAR KP60 261356Z AUTO 00000KT M04/M06 A3036 RMK AO1 SLP304
T10391056





000
SAUS45 KRIW 261257
MTRP60
METAR KP60 261256Z AUTO 00000KT M04/M06 A3036 RMK AO1 SLP303
T10391061





000
SAUS45 KRIW 261257
MTRP60
METAR KP60 261256Z AUTO 00000KT M04/M06 A3036 RMK AO1 SLP303
T10391061





000
SAUS45 KRIW 261157
MTRP60
METAR KP60 261156Z AUTO 00000KT M05/M07 A3035 RMK AO1 SLP300
T10501067 11033 21061 53004





000
SAUS45 KRIW 261157
MTRP60
METAR KP60 261156Z AUTO 00000KT M05/M07 A3035 RMK AO1 SLP300
T10501067 11033 21061 53004





000
SAUS45 KRIW 261057
MTRP60
METAR KP60 261056Z AUTO 00000KT M06/M08 A3034 RMK AO1 SLP296
T10561078





000
SAUS45 KRIW 261057
MTRP60
METAR KP60 261056Z AUTO 00000KT M06/M08 A3034 RMK AO1 SLP296
T10561078





000
SAUS45 KRIW 260957
MTRP60
METAR KP60 260956Z AUTO 00000KT M05/M07 A3033 RMK AO1 SLP288
T10501072





000
SAUS45 KRIW 260957
MTRP60
METAR KP60 260956Z AUTO 00000KT M05/M07 A3033 RMK AO1 SLP288
T10501072





000
SAUS45 KRIW 260857
MTRP60
METAR KP60 260856Z AUTO 00000KT M04/M08 A3034 RMK AO1 SLP291
T10391078 56006





000
SAUS45 KRIW 260857
MTRP60
METAR KP60 260856Z AUTO 00000KT M04/M08 A3034 RMK AO1 SLP291
T10391078 56006





000
SAUS45 KRIW 260757
MTRP60
METAR KP60 260756Z AUTO 00000KT M06/M08 A3035 RMK AO1 SLP293
T10561083





    US Dept of Commerce
    National Oceanic and Atmospheric Administration
    National Weather Service
    1325 East West Highway
    Silver Spring, MD 20910
    Page Author: NWS Internet Services Team
Disclaimer
Information Quality
Credits
Glossary
Privacy Policy
Freedom of Information Act (FOIA)
About Us
Career Opportunities